Time;durP1;ratioP1;P1;durP2;ratioP2;P2;SDS_P1;SDS_P2;PMS_P1;PMS_P2;Temp;Humidity;BMP_temperature;BMP_pressure;BME280_temperature;BME280_humidity;BME280_pressure;Samples;Min_cycle;Max_cycle;Signal;HPM_P1;HPM_P2
2023/05/08 00:00:49;;;;;;;;;;;18.70;84.90;;;;;;4955141;29;19915;-96
2023/05/08 00:03:15;;;;;;;;;;;18.60;84.60;;;;;;4954073;29;19917;-96
2023/05/08 00:05:41;;;;;;;;;;;18.40;84.60;;;;;;4954500;29;19921;-96
2023/05/08 00:08:07;;;;;;;;;;;18.30;85.00;;;;;;4952087;29;19942;-96
2023/05/08 00:10:32;;;;;;;;;;;18.10;84.80;;;;;;4950866;29;19911;-96
2023/05/08 00:12:58;;;;;;;;;;;18.10;85.10;;;;;;4952334;29;19966;-96
2023/05/08 00:15:24;;;;;;;;;;;18.00;84.30;;;;;;4951438;29;19918;-96
2023/05/08 00:17:50;;;;;;;;;;;18.30;81.50;;;;;;4951355;29;19910;-96
2023/05/08 00:20:16;;;;;;;;;;;18.50;81.40;;;;;;4950178;29;19986;-96
2023/05/08 00:22:42;;;;;;;;;;;18.60;80.80;;;;;;4950550;29;19953;-96
2023/05/08 00:25:08;;;;;;;;;;;18.30;78.90;;;;;;4953044;29;19911;-96
2023/05/08 00:27:34;;;;;;;;;;;17.90;80.60;;;;;;4952933;29;19926;-96
2023/05/08 00:30:00;;;;;;;;;;;17.30;82.60;;;;;;4953777;29;19911;-96
2023/05/08 00:32:28;;;;;;;;;;;16.80;84.80;;;;;;4955421;29;19939;-96
2023/05/08 00:34:56;;;;;;;;;;;16.60;86.50;;;;;;4954086;29;19911;-96
2023/05/08 00:37:22;;;;;;;;;;;16.40;88.40;;;;;;4956269;29;19922;-96
2023/05/08 00:39:48;;;;;;;;;;;16.20;89.70;;;;;;4957939;29;20386;-96
2023/05/08 00:42:14;;;;;;;;;;;16.00;91.00;;;;;;4958882;29;19911;-96
2023/05/08 00:44:40;;;;;;;;;;;15.80;92.10;;;;;;4958341;29;19910;-96
2023/05/08 00:47:07;;;;;;;;;;;15.70;92.30;;;;;;4959008;29;19979;-96
2023/05/08 00:49:34;;;;;;;;;;;15.80;92.30;;;;;;4959551;29;19910;-96
2023/05/08 00:52:03;;;;;;;;;;;15.70;92.20;;;;;;4958876;29;19994;-96
2023/05/08 00:54:30;;;;;;;;;;;15.70;92.10;;;;;;4959243;29;19895;-96
2023/05/08 00:56:56;;;;;;;;;;;15.80;91.90;;;;;;4959115;29;19921;-96
2023/05/08 00:59:24;;;;;;;;;;;15.90;91.80;;;;;;4976696;29;19918;-96
2023/05/08 01:01:52;;;;;;;;;;;15.80;91.60;;;;;;4960337;29;19937;-96
2023/05/08 01:04:26;;;;;;;;;;;15.80;91.40;;;;;;4961523;29;19950;-96
2023/05/08 01:06:52;;;;;;;;;;;15.90;91.30;;;;;;4961557;29;19911;-96
2023/05/08 01:09:19;;;;;;;;;;;15.90;90.80;;;;;;4960751;29;19917;-96
2023/05/08 01:11:49;;;;;;;;;;;15.80;90.70;;;;;;4960210;29;19934;-96
2023/05/08 01:14:19;;;;;;;;;;;15.80;91.10;;;;;;4959486;29;20216;-96
2023/05/08 01:16:48;;;;;;;;;;;15.70;91.20;;;;;;4959077;29;19969;-96
2023/05/08 01:19:28;;;;;;;;;;;15.60;91.70;;;;;;4958621;29;19911;-96
2023/05/08 01:22:06;;;;;;;;;;;15.60;92.20;;;;;;4959027;29;19910;-96
2023/05/08 01:24:55;;;;;;;;;;;15.50;92.70;;;;;;4959868;29;19917;-96
2023/05/08 01:27:35;;;;;;;;;;;15.40;93.00;;;;;;4959351;29;19958;-96
2023/05/08 01:30:15;;;;;;;;;;;15.40;93.10;;;;;;4959265;29;19949;-95
2023/05/08 01:32:45;;;;;;;;;;;15.40;93.10;;;;;;4958115;29;19911;-96
2023/05/08 01:35:25;;;;;;;;;;;15.40;92.90;;;;;;4958799;29;19942;-96
2023/05/08 01:38:09;;;;;;;;;;;15.50;92.80;;;;;;5005184;23;20379;-96
2023/05/08 01:40:48;;;;;;;;;;;15.50;92.60;;;;;;4908744;29;19919;-96
2023/05/08 01:43:13;;;;;;;;;;;15.60;92.40;;;;;;4910419;29;19911;-96
2023/05/08 01:45:41;;;;;;;;;;;15.60;92.40;;;;;;4911359;29;19962;-96
2023/05/08 01:48:12;;;;;;;;;;;15.70;92.40;;;;;;4927073;29;19912;-96
2023/05/08 01:50:46;;;;;;;;;;;15.80;92.50;;;;;;4911296;29;19918;-96
2023/05/08 01:53:16;;;;;;;;;;;15.80;92.50;;;;;;4911316;29;19915;-96
2023/05/08 01:55:43;;;;;;;;;;;15.90;92.30;;;;;;4929196;29;19915;-96
2023/05/08 01:58:09;;;;;;;;;;;15.90;92.20;;;;;;4913351;29;19918;-96
2023/05/08 02:00:39;;;;;;;;;;;15.90;91.90;;;;;;4913105;29;19982;-96
2023/05/08 02:03:06;;;;;;;;;;;16.00;91.70;;;;;;4912652;29;19912;-96
2023/05/08 02:05:33;;;;;;;;;;;16.00;91.80;;;;;;4913302;29;19915;-96
2023/05/08 02:08:00;;;;;;;;;;;16.10;91.70;;;;;;4913081;29;19911;-96
2023/05/08 02:10:27;;;;;;;;;;;16.10;91.70;;;;;;4913131;29;19912;-96
2023/05/08 02:12:53;;;;;;;;;;;16.20;91.60;;;;;;4913116;29;20367;-96
2023/05/08 02:15:20;;;;;;;;;;;16.20;91.60;;;;;;4913490;29;20348;-96
2023/05/08 02:17:47;;;;;;;;;;;16.20;91.40;;;;;;4930133;29;20055;-96
2023/05/08 02:20:14;;;;;;;;;;;16.30;91.30;;;;;;4913864;29;19978;-96
2023/05/08 02:22:42;;;;;;;;;;;16.30;91.20;;;;;;4915632;29;19947;-96
2023/05/08 02:25:08;;;;;;;;;;;16.30;91.10;;;;;;4913684;29;19911;-96
2023/05/08 02:27:35;;;;;;;;;;;16.20;91.50;;;;;;4913746;29;19911;-96
2023/05/08 02:30:00;;;;;;;;;;;16.20;91.90;;;;;;4911263;29;19911;-96
2023/05/08 02:32:26;;;;;;;;;;;16.20;92.00;;;;;;4907059;29;19983;-96
2023/05/08 02:34:53;;;;;;;;;;;16.20;92.00;;;;;;4892863;29;19922;-96
2023/05/08 02:37:20;;;;;;;;;;;16.20;91.70;;;;;;4892791;29;20376;-96
2023/05/08 02:39:47;;;;;;;;;;;16.20;92.30;;;;;;4908814;29;19915;-96
2023/05/08 02:42:13;;;;;;;;;;;16.10;92.00;;;;;;4925043;29;19954;-96
2023/05/08 02:44:39;;;;;;;;;;;16.10;91.80;;;;;;4908009;29;20400;-96
2023/05/08 02:47:18;;;;;;;;;;;16.10;91.70;;;;;;4909050;29;19946;-96
2023/05/08 02:49:50;;;;;;;;;;;16.20;91.60;;;;;;4916103;29;19911;-96
2023/05/08 02:52:21;;;;;;;;;;;16.20;91.60;;;;;;4917186;29;19911;-96
2023/05/08 02:55:00;;;;;;;;;;;16.30;91.60;;;;;;4917042;29;19911;-96
2023/05/08 02:57:32;;;;;;;;;;;16.30;91.50;;;;;;4917789;29;19902;-96
2023/05/08 03:00:04;;;;;;;;;;;16.30;91.60;;;;;;4934812;29;19915;-96
2023/05/08 03:02:41;;;;;;;;;;;16.30;91.40;;;;;;4917865;29;19917;-96
2023/05/08 03:05:14;;;;;;;;;;;16.30;90.90;;;;;;4917037;29;20368;-96
2023/05/08 03:07:41;;;;;;;;;;;16.20;91.00;;;;;;4915484;29;19912;-96
2023/05/08 03:10:15;;;;;;;;;;;16.20;91.10;;;;;;4917693;29;19911;-96
2023/05/08 03:12:44;;;;;;;;;;;16.10;91.30;;;;;;4907627;29;19911;-96
2023/05/08 03:15:10;;;;;;;;;;;16.20;91.30;;;;;;4924520;29;19974;-96
2023/05/08 03:17:36;;;;;;;;;;;16.20;91.30;;;;;;4907109;29;19998;-96
2023/05/08 03:20:07;;;;;;;;;;;16.10;91.40;;;;;;4906264;29;19922;-96
2023/05/08 03:22:36;;;;;;;;;;;16.10;91.60;;;;;;4924341;29;19978;-96
2023/05/08 03:25:03;;;;;;;;;;;16.10;91.80;;;;;;4907469;29;19955;-96
2023/05/08 03:27:29;;;;;;;;;;;16.20;91.80;;;;;;4924377;29;19912;-96
2023/05/08 03:29:56;;;;;;;;;;;16.30;91.80;;;;;;4907008;29;19911;-96
2023/05/08 03:32:25;;;;;;;;;;;16.30;91.70;;;;;;4923898;29;20371;-96
2023/05/08 03:34:51;;;;;;;;;;;16.30;91.50;;;;;;4907500;29;19911;-96
2023/05/08 03:37:17;;;;;;;;;;;16.40;91.00;;;;;;4925713;29;19927;-96
2023/05/08 03:39:43;;;;;;;;;;;16.50;90.60;;;;;;4908759;29;20010;-96
2023/05/08 03:42:10;;;;;;;;;;;16.60;90.10;;;;;;4909022;29;19981;-96
2023/05/08 03:44:36;;;;;;;;;;;16.60;89.50;;;;;;4926266;29;19911;-96
2023/05/08 03:53:08;;;;;;;;;;;16.80;88.10;;;;;;4930296;29;19962;-96
2023/05/08 03:55:34;;;;;;;;;;;16.80;87.70;;;;;;4915553;29;20311;-96
2023/05/08 03:58:03;;;;;;;;;;;16.80;88.00;;;;;;4914681;29;19911;-96
2023/05/08 04:00:29;;;;;;;;;;;16.80;88.40;;;;;;4912972;29;19915;-96
2023/05/08 04:03:10;;;;;;;;;;;16.70;89.00;;;;;;4930517;29;19990;-96
2023/05/08 04:05:42;;;;;;;;;;;16.60;89.40;;;;;;4930492;29;19911;-96
2023/05/08 04:08:08;;;;;;;;;;;16.50;90.00;;;;;;4913326;29;19944;-96
2023/05/08 04:10:40;;;;;;;;;;;16.50;90.40;;;;;;4914200;29;19911;-96
2023/05/08 04:13:07;;;;;;;;;;;16.60;90.70;;;;;;4935667;29;19912;-96
2023/05/08 04:15:36;;;;;;;;;;;16.50;90.60;;;;;;4936488;29;19911;-96
2023/05/08 04:18:09;;;;;;;;;;;16.60;90.70;;;;;;4936982;29;19939;-96
2023/05/08 04:20:40;;;;;;;;;;;16.60;90.90;;;;;;4937154;29;19915;-96
2023/05/08 04:23:08;;;;;;;;;;;16.60;90.90;;;;;;4922224;29;19911;-97
2023/05/08 04:25:38;;;;;;;;;;;16.60;90.80;;;;;;4922392;29;19911;-96
2023/05/08 04:28:07;;;;;;;;;;;16.60;90.80;;;;;;4939713;29;20009;-96
2023/05/08 04:30:33;;;;;;;;;;;16.60;90.80;;;;;;4920919;29;19952;-96
2023/05/08 04:33:04;;;;;;;;;;;16.60;91.20;;;;;;4939041;29;19947;-96
2023/05/08 04:35:30;;;;;;;;;;;16.60;91.60;;;;;;4922032;29;19918;-96
2023/05/08 04:37:57;;;;;;;;;;;16.50;92.60;;;;;;4937256;29;19921;-96
2023/05/08 04:40:24;;;;;;;;;;;16.50;92.90;;;;;;4920357;29;20379;-96
2023/05/08 04:42:52;;;;;;;;;;;16.60;93.20;;;;;;4919848;29;20006;-96
2023/05/08 04:45:18;;;;;;;;;;;16.50;93.30;;;;;;4919053;29;19970;-96
2023/05/08 04:47:47;;;;;;;;;;;16.60;93.20;;;;;;4919501;29;19918;-96
2023/05/08 04:50:13;;;;;;;;;;;16.50;93.20;;;;;;4918957;29;20050;-96
2023/05/08 04:52:40;;;;;;;;;;;16.50;93.20;;;;;;4917388;29;19935;-96
2023/05/08 04:55:06;;;;;;;;;;;16.60;93.20;;;;;;4918541;29;20352;-96
2023/05/08 04:57:32;;;;;;;;;;;16.60;93.10;;;;;;4936060;29;19915;-96
2023/05/08 04:59:58;;;;;;;;;;;16.70;92.90;;;;;;4919805;29;19954;-96
2023/05/08 05:02:28;;;;;;;;;;;16.80;92.80;;;;;;4920707;29;19911;-96
2023/05/08 05:04:57;;;;;;;;;;;16.80;92.60;;;;;;4920387;29;19912;-96
2023/05/08 05:07:23;;;;;;;;;;;16.70;92.30;;;;;;4920377;29;19930;-96
2023/05/08 05:09:52;;;;;;;;;;;16.60;92.30;;;;;;4919190;29;19996;-96
2023/05/08 05:12:18;;;;;;;;;;;16.70;92.30;;;;;;4920109;29;19938;-96
2023/05/08 05:14:44;;;;;;;;;;;16.70;92.00;;;;;;4919503;29;19911;-96
2023/05/08 05:17:13;;;;;;;;;;;16.70;91.80;;;;;;4919368;29;20336;-96
2023/05/08 05:19:39;;;;;;;;;;;16.70;91.70;;;;;;4917722;29;19911;-96
2023/05/08 05:22:06;;;;;;;;;;;16.60;91.90;;;;;;4917355;29;19922;-96
2023/05/08 05:24:34;;;;;;;;;;;16.50;92.10;;;;;;4935196;29;19917;-96
2023/05/08 05:27:01;;;;;;;;;;;16.60;92.30;;;;;;4919934;29;19918;-96
2023/05/08 05:29:27;;;;;;;;;;;16.50;92.30;;;;;;4920252;29;19971;-96
2023/05/08 05:31:53;;;;;;;;;;;16.60;92.40;;;;;;4921762;29;19907;-96
2023/05/08 05:34:20;;;;;;;;;;;16.60;92.40;;;;;;4925455;29;19912;-96
2023/05/08 05:36:46;;;;;;;;;;;16.60;92.50;;;;;;4925675;29;19939;-96
2023/05/08 05:39:18;;;;;;;;;;;16.70;92.50;;;;;;4910471;29;19935;-96
2023/05/08 05:41:45;;;;;;;;;;;16.70;92.50;;;;;;4905993;29;19919;-96
2023/05/08 05:44:11;;;;;;;;;;;16.70;92.60;;;;;;4902832;29;19975;-96
2023/05/08 05:46:37;;;;;;;;;;;16.80;92.50;;;;;;4905820;29;19928;-96
2023/05/08 05:49:08;;;;;;;;;;;16.80;92.30;;;;;;4922348;29;19970;-96
2023/05/08 05:51:34;;;;;;;;;;;16.80;92.30;;;;;;4972239;23;19914;-96
2023/05/08 05:54:03;;;;;;;;;;;16.80;92.30;;;;;;4981498;28;19894;-96
2023/05/08 05:56:33;;;;;;;;;;;16.90;92.00;;;;;;4981104;28;19895;-96
2023/05/08 05:59:07;;;;;;;;;;;16.90;91.60;;;;;;4982487;28;19906;-96
2023/05/08 06:01:35;;;;;;;;;;;17.00;91.30;;;;;;4980813;28;19969;-96
2023/05/08 06:04:07;;;;;;;;;;;17.00;91.10;;;;;;4980592;28;19901;-96
2023/05/08 06:06:35;;;;;;;;;;;17.10;91.00;;;;;;4980804;28;19910;-96
2023/05/08 06:09:09;;;;;;;;;;;17.10;90.90;;;;;;4982428;28;19933;-96
2023/05/08 06:11:37;;;;;;;;;;;17.10;90.70;;;;;;4981242;28;19911;-96
2023/05/08 06:14:06;;;;;;;;;;;17.10;90.50;;;;;;4980382;28;20013;-96
2023/05/08 06:16:38;;;;;;;;;;;16.90;90.50;;;;;;4980934;28;19964;-96
2023/05/08 06:19:06;;;;;;;;;;;16.80;90.90;;;;;;4980102;28;19914;-96
2023/05/08 06:21:36;;;;;;;;;;;16.70;91.30;;;;;;4978569;28;19914;-96
2023/05/08 06:24:05;;;;;;;;;;;16.70;91.60;;;;;;4995695;28;19952;-96
2023/05/08 06:26:37;;;;;;;;;;;16.70;91.80;;;;;;4978097;28;19917;-96
2023/05/08 06:29:10;;;;;;;;;;;16.80;91.90;;;;;;4979542;28;19953;-96
2023/05/08 06:31:40;;;;;;;;;;;16.80;92.00;;;;;;4980993;28;19910;-96
2023/05/08 06:34:09;;;;;;;;;;;16.90;91.90;;;;;;4977467;28;19918;-96
2023/05/08 06:36:40;;;;;;;;;;;16.90;91.80;;;;;;4997513;28;19903;-96
2023/05/08 06:39:13;;;;;;;;;;;17.00;91.70;;;;;;4980718;28;19910;-96
2023/05/08 06:41:42;;;;;;;;;;;17.10;91.60;;;;;;4979847;28;19925;-96
2023/05/08 06:44:16;;;;;;;;;;;17.20;91.50;;;;;;4969777;29;19914;-96
2023/05/08 06:46:43;;;;;;;;;;;17.30;90.90;;;;;;4959797;29;19934;-96
2023/05/08 06:49:12;;;;;;;;;;;17.40;90.40;;;;;;4960342;28;19926;-96
2023/05/08 06:51:47;;;;;;;;;;;17.50;90.00;;;;;;4956424;29;19930;-96
2023/05/08 06:54:28;;;;;;;;;;;17.60;89.90;;;;;;4957911;29;19939;-96
2023/05/08 06:56:56;;;;;;;;;;;17.80;89.80;;;;;;4958140;29;19938;-96
2023/05/08 06:59:37;;;;;;;;;;;17.80;89.70;;;;;;4936365;29;19915;-96
2023/05/08 07:02:12;;;;;;;;;;;17.90;89.50;;;;;;4951936;29;19919;-96
2023/05/08 07:04:40;;;;;;;;;;;18.00;89.70;;;;;;4960125;28;19917;-96
2023/05/08 07:07:10;;;;;;;;;;;18.00;89.80;;;;;;4959066;29;19938;-96
2023/05/08 07:09:40;;;;;;;;;;;18.10;89.80;;;;;;4957229;29;19910;-96
2023/05/08 07:12:08;;;;;;;;;;;18.20;89.60;;;;;;4957895;29;19905;-96
2023/05/08 07:14:35;;;;;;;;;;;18.10;89.50;;;;;;4956023;29;19934;-96
2023/05/08 07:17:07;;;;;;;;;;;18.20;89.00;;;;;;4955057;29;20323;-96
2023/05/08 07:19:39;;;;;;;;;;;18.20;88.90;;;;;;4955730;29;19911;-96
2023/05/08 07:22:10;;;;;;;;;;;18.20;89.30;;;;;;4955027;29;19915;-96
2023/05/08 07:24:38;;;;;;;;;;;18.30;89.20;;;;;;4955472;29;19911;-96
2023/05/08 07:27:07;;;;;;;;;;;18.30;89.20;;;;;;4956023;29;19911;-96
2023/05/08 07:29:42;;;;;;;;;;;18.30;88.40;;;;;;4956183;29;19934;-96
2023/05/08 07:32:09;;;;;;;;;;;18.30;88.30;;;;;;4956617;29;19958;-96
2023/05/08 07:34:42;;;;;;;;;;;18.30;88.40;;;;;;4957154;29;19907;-96
2023/05/08 07:37:10;;;;;;;;;;;18.40;88.80;;;;;;4957735;29;19922;-96
2023/05/08 07:39:48;;;;;;;;;;;18.50;89.10;;;;;;4942880;29;19899;-96
2023/05/08 07:42:25;;;;;;;;;;;18.60;89.20;;;;;;4959487;28;19922;-96
2023/05/08 07:44:55;;;;;;;;;;;18.70;88.70;;;;;;4959755;29;19907;-96
2023/05/08 07:47:27;;;;;;;;;;;18.80;88.90;;;;;;4961204;29;19954;-96
2023/05/08 07:49:55;;;;;;;;;;;18.80;88.40;;;;;;4963897;28;19922;-96
2023/05/08 07:52:29;;;;;;;;;;;18.80;88.00;;;;;;4963809;28;19919;-96
2023/05/08 07:55:05;;;;;;;;;;;19.00;87.90;;;;;;4982177;29;19895;-96
2023/05/08 07:57:39;;;;;;;;;;;19.10;87.20;;;;;;4964360;29;19911;-96
2023/05/08 08:00:07;;;;;;;;;;;19.20;87.90;;;;;;4964472;29;20012;-96
2023/05/08 08:02:38;;;;;;;;;;;19.30;87.10;;;;;;4964069;29;19917;-96
2023/05/08 08:05:10;;;;;;;;;;;19.30;86.50;;;;;;4964643;29;19913;-96
2023/05/08 08:07:42;;;;;;;;;;;19.40;86.90;;;;;;4965068;29;19914;-96
2023/05/08 08:10:12;;;;;;;;;;;19.50;86.40;;;;;;4981541;29;19996;-96
2023/05/08 08:13:08;;;;;;;;;;;19.50;85.90;;;;;;4965322;28;19918;-96
2023/05/08 08:15:38;;;;;;;;;;;19.60;85.30;;;;;;4964010;29;19978;-96
2023/05/08 08:18:05;;;;;;;;;;;19.60;84.70;;;;;;4960243;29;19911;-96
2023/05/08 08:20:36;;;;;;;;;;;19.60;83.20;;;;;;4977478;29;19981;-96
2023/05/08 08:23:02;;;;;;;;;;;19.70;83.40;;;;;;4957226;29;19917;-96
2023/05/08 08:25:28;;;;;;;;;;;19.80;83.90;;;;;;4957230;29;19954;-96
2023/05/08 08:28:01;;;;;;;;;;;19.80;82.80;;;;;;4956310;29;19917;-96
2023/05/08 08:30:31;;;;;;;;;;;19.90;83.40;;;;;;4956017;29;19917;-96
2023/05/08 08:33:11;;;;;;;;;;;20.00;82.80;;;;;;4963573;29;19915;-96
2023/05/08 08:35:46;;;;;;;;;;;20.10;82.40;;;;;;4962932;29;19962;-96
2023/05/08 08:38:13;;;;;;;;;;;20.00;82.00;;;;;;4962301;29;19918;-96
2023/05/08 08:40:40;;;;;;;;;;;20.00;81.60;;;;;;4960465;29;19914;-96
2023/05/08 08:43:09;;;;;;;;;;;20.00;81.70;;;;;;4958373;28;19917;-96
2023/05/08 08:45:39;;;;;;;;;;;20.10;81.60;;;;;;4959347;29;19910;-96
2023/05/08 08:48:07;;;;;;;;;;;20.00;81.30;;;;;;4958945;29;19911;-96
2023/05/08 08:50:35;;;;;;;;;;;20.00;81.30;;;;;;4955519;29;19938;-96
2023/05/08 08:53:09;;;;;;;;;;;20.00;81.10;;;;;;4955443;29;19917;-96
2023/05/08 08:55:38;;;;;;;;;;;20.00;80.20;;;;;;4957291;29;19911;-96
2023/05/08 08:58:04;;;;;;;;;;;20.00;78.70;;;;;;4956965;29;19895;-96
2023/05/08 09:00:31;;;;;;;;;;;20.00;78.70;;;;;;4955702;29;19990;-96
2023/05/08 09:02:58;;;;;;;;;;;20.00;79.00;;;;;;4955749;29;19918;-96
2023/05/08 09:05:25;;;;;;;;;;;20.00;78.70;;;;;;4955908;29;19982;-96
2023/05/08 09:07:56;;;;;;;;;;;20.00;78.40;;;;;;4956129;29;19943;-96
2023/05/08 09:10:23;;;;;;;;;;;20.00;78.00;;;;;;4957218;28;19911;-96
2023/05/08 09:12:49;;;;;;;;;;;20.10;78.50;;;;;;4956745;29;20295;-96
2023/05/08 09:15:16;;;;;;;;;;;20.10;78.30;;;;;;4955454;29;19917;-96
2023/05/08 09:17:42;;;;;;;;;;;20.10;78.30;;;;;;4955310;29;19917;-96
2023/05/08 09:20:08;;;;;;;;;;;20.20;79.10;;;;;;4956908;29;19922;-96
2023/05/08 09:22:38;;;;;;;;;;;20.30;78.00;;;;;;4956219;29;19974;-96
2023/05/08 09:25:08;;;;;;;;;;;20.30;77.60;;;;;;4954833;29;19966;-96
2023/05/08 09:27:37;;;;;;;;;;;20.40;77.30;;;;;;4954698;29;19969;-96
2023/05/08 09:30:03;;;;;;;;;;;20.50;76.90;;;;;;4953626;29;19910;-96
2023/05/08 09:32:33;;;;;;;;;;;20.60;77.30;;;;;;4952866;29;19922;-96
2023/05/08 09:34:59;;;;;;;;;;;20.50;77.70;;;;;;4952854;29;19958;-96
2023/05/08 09:40:15;;;;;;;;;;;20.50;77.80;;;;;;4951511;29;19927;-96
2023/05/08 09:42:41;;;;;;;;;;;20.40;77.20;;;;;;4934221;29;19911;-96
2023/05/08 09:45:09;;;;;;;;;;;20.40;77.00;;;;;;4935281;29;19935;-96
2023/05/08 09:47:38;;;;;;;;;;;20.40;75.30;;;;;;4936217;29;19911;-96
2023/05/08 09:50:05;;;;;;;;;;;20.40;75.80;;;;;;4935677;29;19954;-96
2023/05/08 09:52:32;;;;;;;;;;;20.40;76.40;;;;;;4934625;29;19992;-96
2023/05/08 09:55:08;;;;;;;;;;;20.40;76.60;;;;;;4936098;29;19922;-96
2023/05/08 09:57:37;;;;;;;;;;;20.50;77.30;;;;;;4937190;29;19947;-96
2023/05/08 10:00:11;;;;;;;;;;;20.50;76.00;;;;;;4935929;29;19923;-96
2023/05/08 10:02:38;;;;;;;;;;;20.70;75.60;;;;;;4936304;29;19934;-96
2023/05/08 10:05:21;;;;;;;;;;;20.70;75.30;;;;;;4938856;29;19911;-96
2023/05/08 10:07:47;;;;;;;;;;;20.80;75.20;;;;;;4937538;29;19915;-96
2023/05/08 10:10:14;;;;;;;;;;;20.90;74.40;;;;;;4937308;29;20014;-96
2023/05/08 10:12:42;;;;;;;;;;;20.90;74.80;;;;;;4936295;29;19961;-96
2023/05/08 10:15:08;;;;;;;;;;;20.80;73.20;;;;;;4937330;29;19915;-96
2023/05/08 10:17:43;;;;;;;;;;;20.80;74.30;;;;;;4937979;29;19918;-96
2023/05/08 10:20:11;;;;;;;;;;;20.80;73.30;;;;;;4937215;29;19923;-96
2023/05/08 10:22:40;;;;;;;;;;;20.80;73.50;;;;;;4936473;29;19918;-96
2023/05/08 10:25:12;;;;;;;;;;;20.70;73.40;;;;;;4937355;29;19921;-96
2023/05/08 10:27:41;;;;;;;;;;;20.70;72.20;;;;;;4936775;29;20004;-96
2023/05/08 10:30:08;;;;;;;;;;;20.70;72.70;;;;;;4937781;29;19911;-96
2023/05/08 10:32:39;;;;;;;;;;;20.60;72.30;;;;;;4937832;29;19911;-96
2023/05/08 10:35:07;;;;;;;;;;;20.60;72.70;;;;;;4937675;29;20005;-96
2023/05/08 10:37:35;;;;;;;;;;;20.70;71.90;;;;;;4938122;29;19911;-96
2023/05/08 10:40:01;;;;;;;;;;;20.80;71.70;;;;;;4935154;29;19923;-96
2023/05/08 10:42:27;;;;;;;;;;;20.80;71.70;;;;;;4917546;29;19912;-96
2023/05/08 10:44:54;;;;;;;;;;;20.80;71.60;;;;;;4918667;29;19918;-96
2023/05/08 10:47:29;;;;;;;;;;;20.80;71.40;;;;;;4919198;29;19938;-96
2023/05/08 10:49:58;;;;;;;;;;;20.90;71.70;;;;;;4919104;29;19992;-96
2023/05/08 10:52:31;;;;;;;;;;;20.80;72.10;;;;;;4919154;29;20252;-96
2023/05/08 10:55:08;;;;;;;;;;;21.00;72.20;;;;;;4918556;29;19902;-96
2023/05/08 10:57:37;;;;;;;;;;;21.10;71.70;;;;;;4919560;29;19911;-96
2023/05/08 11:00:09;;;;;;;;;;;21.20;71.50;;;;;;4919550;29;19921;-96
2023/05/08 11:02:37;;;;;;;;;;;21.20;72.00;;;;;;4918816;29;20367;-96
2023/05/08 11:05:15;;;;;;;;;;;21.30;71.50;;;;;;4918691;29;19953;-96
2023/05/08 11:07:58;;;;;;;;;;;21.40;71.80;;;;;;4919256;29;19918;-96
2023/05/08 11:10:31;;;;;;;;;;;21.40;71.50;;;;;;4918720;29;19947;-96
2023/05/08 11:12:57;;;;;;;;;;;21.30;71.00;;;;;;4918876;29;19993;-96
2023/05/08 11:15:38;;;;;;;;;;;21.40;72.20;;;;;;4918322;29;19918;-96
2023/05/08 11:18:10;;;;;;;;;;;21.40;70.20;;;;;;4918859;29;19936;-96
2023/05/08 11:20:42;;;;;;;;;;;21.30;70.60;;;;;;4921117;29;19915;-96
2023/05/08 11:23:28;;;;;;;;;;;21.30;69.80;;;;;;4924123;29;19916;-96
2023/05/08 11:26:13;;;;;;;;;;;21.40;70.50;;;;;;4940980;29;19939;-96
2023/05/08 11:28:51;;;;;;;;;;;21.60;70.80;;;;;;4924068;29;19967;-96
2023/05/08 11:31:21;;;;;;;;;;;21.70;70.80;;;;;;4923303;29;19912;-96
2023/05/08 11:33:48;;;;;;;;;;;21.80;69.10;;;;;;4923933;29;19982;-96
2023/05/08 11:36:21;;;;;;;;;;;21.90;69.30;;;;;;4923956;29;19978;-96
2023/05/08 11:39:09;;;;;;;;;;;21.80;69.00;;;;;;4932491;29;19947;-96
2023/05/08 11:41:41;;;;;;;;;;;21.90;69.20;;;;;;4942897;29;19915;-96
2023/05/08 11:44:27;;;;;;;;;;;22.20;69.00;;;;;;4959202;29;19914;-96
2023/05/08 11:46:54;;;;;;;;;;;22.30;68.10;;;;;;4942104;29;19910;-96
2023/05/08 11:49:22;;;;;;;;;;;22.40;68.70;;;;;;4942910;29;19895;-96
2023/05/08 11:51:56;;;;;;;;;;;22.60;69.70;;;;;;4958714;29;19919;-96
2023/05/08 11:54:28;;;;;;;;;;;22.70;68.90;;;;;;4942746;29;19911;-96
2023/05/08 11:56:56;;;;;;;;;;;22.80;68.20;;;;;;4943743;29;19911;-96
2023/05/08 11:59:27;;;;;;;;;;;22.80;68.50;;;;;;4941608;29;19911;-96
2023/05/08 12:01:58;;;;;;;;;;;22.80;68.50;;;;;;4942690;29;20321;-96
2023/05/08 12:04:27;;;;;;;;;;;22.90;67.70;;;;;;4942226;29;19976;-96
2023/05/08 12:07:08;;;;;;;;;;;23.00;69.20;;;;;;4944742;29;19895;-96
2023/05/08 12:09:41;;;;;;;;;;;22.80;67.70;;;;;;4960405;29;19911;-96
2023/05/08 12:12:10;;;;;;;;;;;22.80;69.20;;;;;;4944943;29;19910;-96
2023/05/08 12:14:37;;;;;;;;;;;22.70;68.60;;;;;;4944249;29;19895;-97
2023/05/08 12:17:04;;;;;;;;;;;22.70;70.10;;;;;;4943628;29;19919;-96
2023/05/08 12:19:38;;;;;;;;;;;22.60;69.80;;;;;;4944052;29;19915;-96
2023/05/08 12:22:07;;;;;;;;;;;22.50;69.40;;;;;;4945502;29;19935;-96
2023/05/08 12:24:40;;;;;;;;;;;22.40;69.80;;;;;;4945355;29;19895;-96
2023/05/08 12:27:07;;;;;;;;;;;22.30;69.50;;;;;;4945526;29;19915;-96
2023/05/08 12:29:38;;;;;;;;;;;22.20;71.00;;;;;;4945553;29;19911;-96
2023/05/08 12:32:04;;;;;;;;;;;22.20;71.30;;;;;;4944403;29;19914;-97
2023/05/08 12:34:32;;;;;;;;;;;22.10;70.60;;;;;;4944855;29;19895;-96
2023/05/08 12:37:12;;;;;;;;;;;22.20;69.80;;;;;;4945074;29;19994;-96
2023/05/08 12:39:54;;;;;;;;;;;22.30;69.40;;;;;;4944599;29;19918;-96
2023/05/08 12:42:43;;;;;;;;;;;22.40;70.10;;;;;;4945699;29;19899;-97
2023/05/08 12:45:25;;;;;;;;;;;22.60;69.80;;;;;;4944917;29;19921;-96
2023/05/08 12:47:58;;;;;;;;;;;22.70;70.40;;;;;;4948393;29;19921;-96
2023/05/08 12:50:31;;;;;;;;;;;22.70;68.60;;;;;;4944921;29;19911;-96
2023/05/08 12:53:04;;;;;;;;;;;22.70;68.00;;;;;;4944841;29;19930;-96
2023/05/08 12:55:37;;;;;;;;;;;22.50;68.90;;;;;;4945630;29;19934;-96
2023/05/08 12:58:15;;;;;;;;;;;22.50;70.40;;;;;;4945987;29;19972;-96
2023/05/08 13:00:54;;;;;;;;;;;22.40;69.40;;;;;;4946009;29;19929;-96
2023/05/08 13:03:24;;;;;;;;;;;22.50;69.30;;;;;;4944638;29;19918;-96
2023/05/08 13:05:51;;;;;;;;;;;22.60;69.50;;;;;;4942860;29;19895;-96
2023/05/08 13:08:23;;;;;;;;;;;22.60;70.20;;;;;;4944255;29;19918;-96
2023/05/08 13:10:54;;;;;;;;;;;22.80;68.90;;;;;;4929216;29;19919;-96
2023/05/08 13:13:24;;;;;;;;;;;23.00;67.90;;;;;;4944556;29;19902;-96
2023/05/08 13:15:57;;;;;;;;;;;23.10;67.50;;;;;;4929292;29;19915;-96
2023/05/08 14:19:21;;;;;;;;;;;24.30;64.00;;;;;;5121289;23;19917;-96
2023/05/08 14:22:14;;;;;;;;;;;24.40;63.30;;;;;;4978403;28;19910;-96
2023/05/08 14:24:47;;;;;;;;;;;24.20;63.70;;;;;;4925379;29;19899;-96
2023/05/08 14:27:43;;;;;;;;;;;24.00;63.70;;;;;;4939667;29;20000;-96
2023/05/08 14:30:10;;;;;;;;;;;23.80;64.00;;;;;;4923076;29;19946;-96
2023/05/08 14:32:37;;;;;;;;;;;23.70;64.80;;;;;;4922804;29;19982;-96
2023/05/08 14:35:03;;;;;;;;;;;23.20;65.10;;;;;;4922057;29;19911;-96
2023/05/08 14:37:34;;;;;;;;;;;22.90;65.70;;;;;;4937646;29;19896;-96
2023/05/08 14:40:04;;;;;;;;;;;22.80;66.40;;;;;;4921981;29;19927;-96
2023/05/08 14:42:39;;;;;;;;;;;22.80;68.00;;;;;;4936246;29;19944;-97
2023/05/08 14:45:10;;;;;;;;;;;22.80;68.20;;;;;;4918540;29;19911;-96
2023/05/08 14:47:40;;;;;;;;;;;22.80;69.00;;;;;;4917136;29;19911;-96
2023/05/08 14:50:11;;;;;;;;;;;22.50;68.70;;;;;;4936913;29;19990;-96
2023/05/08 14:52:38;;;;;;;;;;;22.50;68.80;;;;;;4955901;29;19930;-96
2023/05/08 14:55:08;;;;;;;;;;;22.50;69.20;;;;;;4955552;29;19988;-96
2023/05/08 14:57:39;;;;;;;;;;;22.60;69.10;;;;;;4954786;29;19921;-96
2023/05/08 15:00:10;;;;;;;;;;;22.70;69.10;;;;;;4954629;29;19919;-96
2023/05/08 15:02:40;;;;;;;;;;;22.50;69.00;;;;;;4953796;29;19914;-96
2023/05/08 15:05:07;;;;;;;;;;;22.50;69.60;;;;;;4957310;29;19906;-96
2023/05/08 15:07:33;;;;;;;;;;;22.50;69.40;;;;;;4957812;29;20017;-96
2023/05/08 15:10:00;;;;;;;;;;;22.60;69.10;;;;;;4954740;29;19907;-96
2023/05/08 15:12:26;;;;;;;;;;;22.60;68.50;;;;;;4950058;28;20014;-96
2023/05/08 15:14:55;;;;;;;;;;;22.50;69.50;;;;;;4953948;29;19911;-97
2023/05/08 15:17:25;;;;;;;;;;;22.30;70.20;;;;;;4941044;29;20311;-96
2023/05/08 15:19:54;;;;;;;;;;;22.30;69.80;;;;;;4955501;29;19958;-96
2023/05/08 15:22:21;;;;;;;;;;;22.20;70.50;;;;;;4956481;29;19902;-96
2023/05/08 15:25:01;;;;;;;;;;;22.10;70.10;;;;;;4956727;29;19895;-96
2023/05/08 15:27:31;;;;;;;;;;;22.10;70.00;;;;;;4954586;29;19910;-96
2023/05/08 15:30:00;;;;;;;;;;;22.30;70.00;;;;;;4956242;29;19903;-96
2023/05/08 15:32:28;;;;;;;;;;;22.30;70.70;;;;;;4955922;29;19942;-96
2023/05/08 15:35:02;;;;;;;;;;;22.30;69.70;;;;;;4957236;29;19970;-96
2023/05/08 15:37:31;;;;;;;;;;;22.40;68.60;;;;;;4957133;29;19902;-96
2023/05/08 15:40:03;;;;;;;;;;;22.70;68.60;;;;;;4956298;29;19994;-96
2023/05/08 15:42:37;;;;;;;;;;;22.80;67.30;;;;;;4958841;29;19915;-96